FVTB weather

Public forecast

Using degrees Celsius for public forecast. Weather courtesy of forecast.io.

Closest aviation weather report (METAR) to Tiger Bay Airstrip

Report is more than 6 hours old.

Closest report is Kariba International Airport, 35.3 nm (65.4 km) NE. Retrieved 2020/08/10 12:00 UTC (22 hours ago):

FVKB 101200Z 32007KT CAVOK 30/08 Q1015

Closest aviation forecast (TAF) to Tiger Bay Airstrip

Forecast is more than 12 hours old.

Closest forecast is Kariba International Airport, 35.3 nm (65.4 km) NE. Retrieved 2018/08/24 06:00 UTC (2 years ago):

TAF FVKB 240400Z 2406/2416 27005KT CAVOK